Time;durP1;ratioP1;P1;durP2;ratioP2;P2;SDS_P1;SDS_P2;PMS_P1;PMS_P2;Temp;Humidity;BMP_temperature;BMP_pressure;BME280_temperature;BME280_humidity;BME280_pressure;Samples;Min_cycle;Max_cycle;Signal;HPM_P1;HPM_P2
2023/01/14 00:00:23;;;;;;;0.43;0.43;;;;;;;8.54;100.00;99221.00;5074134;28;20060;-74
2023/01/14 00:02:49;;;;;;;0.30;0.30;;;;;;;8.46;100.00;99210.47;5040991;28;20115;-74
2023/01/14 00:05:15;;;;;;;0.40;0.40;;;;;;;8.47;100.00;99204.09;5073691;28;20020;-74
2023/01/14 00:07:40;;;;;;;0.40;0.40;;;;;;;8.45;100.00;99209.66;5057615;28;20047;-74
2023/01/14 00:10:07;;;;;;;0.40;0.40;;;;;;;8.42;100.00;99201.19;5040777;28;20052;-74
2023/01/14 00:12:33;;;;;;;0.30;0.30;;;;;;;8.33;100.00;99179.06;5057327;28;20036;-74
2023/01/14 00:14:58;;;;;;;0.40;0.40;;;;;;;8.40;100.00;99200.56;5073450;28;20024;-75
2023/01/14 00:17:24;;;;;;;0.40;0.40;;;;;;;8.36;100.00;99182.19;5040920;28;20549;-74
2023/01/14 00:19:50;;;;;;;0.40;0.40;;;;;;;8.35;100.00;99175.16;5074013;28;20029;-74
2023/01/14 00:22:15;;;;;;;0.40;0.40;;;;;;;8.35;100.00;99169.81;5057222;28;20020;-74
2023/01/14 00:24:41;;;;;;;0.30;0.30;;;;;;;8.35;100.00;99163.63;5057006;28;20410;-74
2023/01/14 00:27:07;;;;;;;0.40;0.40;;;;;;;8.34;100.00;99152.09;5073741;28;20425;-74
2023/01/14 00:29:34;;;;;;;0.30;0.30;;;;;;;8.34;100.00;99143.25;5073523;28;20048;-74
2023/01/14 00:32:05;;;;;;;0.45;0.45;;;;;;;8.36;100.00;99135.81;5040505;28;20040;-74
2023/01/14 00:34:32;;;;;;;0.40;0.40;;;;;;;8.36;100.00;99119.75;5056702;28;20487;-74
2023/01/14 00:36:58;;;;;;;0.40;0.40;;;;;;;8.36;100.00;99115.22;5056424;28;20048;-74
2023/01/14 00:39:24;;;;;;;0.40;0.40;;;;;;;8.27;100.00;99092.31;5072925;28;20036;-74
2023/01/14 00:41:50;;;;;;;0.40;0.40;;;;;;;8.29;100.00;99084.91;5023835;28;20032;-74
2023/01/14 00:44:17;;;;;;;0.40;0.40;;;;;;;8.35;100.00;99084.09;5023415;28;20036;-75
2023/01/14 00:46:43;;;;;;;0.40;0.40;;;;;;;8.35;100.00;99081.44;5072817;28;20470;-75
2023/01/14 00:49:15;;;;;;;0.35;0.35;;;;;;;8.31;100.00;99072.16;5072797;28;20039;-75
2023/01/14 00:51:42;;;;;;;0.40;0.40;;;;;;;8.32;100.00;99079.16;5073246;28;20090;-74
2023/01/14 00:54:08;;;;;;;0.40;0.40;;;;;;;8.36;100.00;99072.38;5056642;28;20028;-75
2023/01/14 00:56:33;;;;;;;0.40;0.40;;;;;;;8.32;100.00;99073.81;5073268;28;20450;-75
2023/01/14 00:58:59;;;;;;;0.40;0.40;;;;;;;8.29;100.00;99065.34;5056071;28;20037;-75
2023/01/14 01:01:25;;;;;;;0.40;0.40;;;;;;;8.30;100.00;99058.97;5056455;28;20032;-75
2023/01/14 01:03:54;;;;;;;0.40;0.40;;;;;;;8.25;100.00;99046.19;5055719;28;20039;-75
2023/01/14 01:06:22;;;;;;;0.40;0.40;;;;;;;8.25;100.00;99051.53;5023427;28;20062;-75
2023/01/14 01:08:48;;;;;;;0.40;0.40;;;;;;;8.22;100.00;99041.22;5039997;28;20075;-75
2023/01/14 01:11:15;;;;;;;0.40;0.40;;;;;;;8.22;100.00;99043.09;5056467;28;20029;-75
2023/01/14 01:13:40;;;;;;;0.32;0.32;;;;;;;8.18;100.00;99029.28;5055976;28;20124;-75
2023/01/14 01:16:23;;;;;;;0.40;0.40;;;;;;;8.18;100.00;99031.13;5072824;28;20103;-75
2023/01/14 01:18:50;;;;;;;0.38;0.38;;;;;;;8.16;100.00;99025.97;5057167;28;20056;-74
2023/01/14 01:21:16;;;;;;;0.40;0.40;;;;;;;8.14;100.00;99026.19;5039649;28;20032;-75
2023/01/14 01:23:43;;;;;;;0.40;0.40;;;;;;;8.16;100.00;99020.63;5056061;28;20040;-74
2023/01/14 01:26:17;;;;;;;0.40;0.40;;;;;;;8.15;100.00;99014.47;5056304;28;20115;-74
2023/01/14 01:28:45;;;;;;;0.40;0.40;;;;;;;8.12;100.00;99017.53;5039472;28;20050;-74
2023/01/14 01:31:11;;;;;;;0.40;0.40;;;;;;;8.08;100.00;99002.09;5023189;28;20059;-75
2023/01/14 01:33:38;;;;;;;0.40;0.40;;;;;;;8.05;100.00;98999.81;5022909;28;20047;-75
2023/01/14 01:36:06;;;;;;;0.38;0.38;;;;;;;8.01;100.00;99004.72;5072573;28;20097;-75
2023/01/14 01:38:33;;;;;;;0.30;0.30;;;;;;;7.98;100.00;98993.63;5039427;28;20494;-75
2023/01/14 01:40:59;;;;;;;0.30;0.30;;;;;;;8.00;100.00;98997.75;5055664;28;20466;-76
2023/01/14 01:43:28;;;;;;;0.35;0.35;;;;;;;8.01;100.00;98995.88;5039305;28;20040;-75
2023/01/14 01:45:56;;;;;;;0.40;0.40;;;;;;;8.03;100.00;98999.19;5039361;28;20174;-75
2023/01/14 01:48:28;;;;;;;0.40;0.40;;;;;;;8.00;100.00;98979.00;5072087;28;20021;-75
2023/01/14 01:50:59;;;;;;;0.40;0.40;;;;;;;8.05;100.00;98989.09;5055674;28;20067;-75
2023/01/14 01:53:26;;;;;;;0.40;0.40;;;;;;;8.05;100.00;98991.78;5055813;28;20071;-75
2023/01/14 01:55:54;;;;;;;0.40;0.40;;;;;;;8.09;100.00;98987.66;5072046;28;20063;-75
2023/01/14 01:58:21;;;;;;;0.40;0.40;;;;;;;8.05;100.00;98975.72;5022772;28;20059;-75
2023/01/14 02:00:46;;;;;;;0.40;0.40;;;;;;;8.07;100.00;98979.00;5071877;28;20028;-75
2023/01/14 02:03:17;;;;;;;0.40;0.40;;;;;;;8.02;100.00;98976.09;5039266;28;20367;-75
2023/01/14 02:05:43;;;;;;;0.40;0.40;;;;;;;8.02;100.00;98976.97;5055717;28;20036;-75
2023/01/14 02:08:09;;;;;;;0.40;0.40;;;;;;;7.97;100.00;98967.88;5055298;28;20032;-75
2023/01/14 02:11:00;;;;;;;0.40;0.40;;;;;;;7.89;100.00;98972.41;5055563;28;20123;-75
2023/01/14 02:13:35;;;;;;;0.40;0.40;;;;;;;7.85;100.00;98964.97;5072253;28;20029;-75
2023/01/14 02:16:08;;;;;;;0.40;0.40;;;;;;;7.77;100.00;98952.59;5076982;28;20032;-75
2023/01/14 02:18:48;;;;;;;0.40;0.40;;;;;;;7.71;100.00;98950.72;5075959;28;20063;-74
2023/01/14 02:21:20;;;;;;;0.40;0.40;;;;;;;7.67;100.00;98950.31;5059471;28;20051;-75
2023/01/14 02:24:08;;;;;;;0.40;0.40;;;;;;;7.62;100.00;98954.59;5059084;28;20081;-75
2023/01/14 02:26:58;;;;;;;0.40;0.40;;;;;;;7.58;100.00;98942.66;5076019;28;20265;-75
2023/01/14 02:29:27;;;;;;;0.40;0.40;;;;;;;7.54;100.00;98936.91;5042925;28;20130;-76
2023/01/14 02:32:17;;;;;;;0.40;0.40;;;;;;;7.46;100.00;98931.72;5077032;28;20024;-75
2023/01/14 02:35:00;;;;;;;0.47;0.47;;;;;;;7.47;100.00;98920.81;5076655;28;20025;-75
2023/01/14 02:37:30;;;;;;;0.40;0.40;;;;;;;7.43;100.00;98924.91;5076956;28;20028;-75
2023/01/14 02:40:15;;;;;;;0.40;0.40;;;;;;;7.43;100.00;98922.22;5075355;28;20055;-75
2023/01/14 02:46:05;;;;;;;0.40;0.40;;;;;;;7.26;100.00;98899.56;5075451;28;20028;-75
2023/01/14 02:48:32;;;;;;;0.40;0.40;;;;;;;7.29;100.00;98909.03;5059177;28;20075;-74
2023/01/14 02:50:58;;;;;;;0.30;0.30;;;;;;;7.28;100.00;98913.56;5075177;28;20036;-75
2023/01/14 02:53:25;;;;;;;0.35;0.35;;;;;;;7.24;100.00;98907.78;5058653;28;20127;-75
2023/01/14 02:55:51;;;;;;;0.40;0.40;;;;;;;7.24;100.00;98914.97;5075708;28;20060;-75
2023/01/14 02:59:16;;;;;;;0.40;0.40;;;;;;;7.27;100.00;98926.09;5075226;28;20086;-75
2023/01/14 03:01:58;;;;;;;0.38;0.38;;;;;;;7.29;100.00;98925.91;4988048;28;20081;-74
2023/01/14 03:04:30;;;;;;;0.50;0.50;;;;;;;7.36;100.00;98928.63;5076421;28;20067;-74
2023/01/14 03:07:14;;;;;;;0.40;0.40;;;;;;;7.33;100.00;98934.34;5075254;28;20585;-74
2023/01/14 03:10:28;;;;;;;0.40;0.40;;;;;;;7.28;100.00;98932.28;5075253;28;20040;-74
2023/01/14 03:13:41;;;;;;;0.40;0.40;;;;;;;7.08;100.00;98918.81;5061550;28;20639;-74
2023/01/14 03:16:19;;;;;;;0.30;0.30;;;;;;;6.92;100.00;98911.13;5044881;28;20052;-74
2023/01/14 03:18:54;;;;;;;0.40;0.40;;;;;;;6.83;100.00;98916.63;5076180;28;20039;-76
2023/01/14 03:21:23;;;;;;;0.40;0.40;;;;;;;6.80;100.00;98918.84;5074791;28;20028;-76
2023/01/14 03:23:58;;;;;;;0.40;0.40;;;;;;;6.76;100.00;98907.75;5025259;28;20119;-75
2023/01/14 03:26:24;;;;;;;0.40;0.40;;;;;;;6.78;100.00;98915.56;5040480;28;20040;-75
2023/01/14 03:28:51;;;;;;;0.40;0.40;;;;;;;6.79;100.00;98907.34;5074393;28;20028;-75
2023/01/14 03:31:28;;;;;;;0.50;0.50;;;;;;;6.78;100.00;98907.56;5057756;28;20115;-76
2023/01/14 03:34:09;;;;;;;0.40;0.40;;;;;;;6.86;100.00;98928.78;5074967;28;20115;-76
2023/01/14 03:36:36;;;;;;;0.40;0.40;;;;;;;6.85;100.00;98939.66;5041668;28;20036;-75
2023/01/14 03:39:07;;;;;;;0.47;0.47;;;;;;;6.84;100.00;98938.81;5057625;28;20098;-75
2023/01/14 03:44:26;;;;;;;0.40;0.40;;;;;;;6.76;100.00;98947.81;5060325;28;20109;-75
2023/01/14 03:46:52;;;;;;;0.30;0.30;;;;;;;6.70;100.00;98942.44;5057872;28;20528;-74
2023/01/14 03:49:18;;;;;;;0.40;0.40;;;;;;;6.57;100.00;98927.97;5057900;28;20036;-75
2023/01/14 03:52:19;;;;;;;0.40;0.40;;;;;;;6.58;100.00;98937.63;5057428;28;20470;-74
2023/01/14 03:54:52;;;;;;;1.55;0.55;;;;;;;6.50;100.00;98936.94;5057561;28;20044;-76
2023/01/14 03:57:29;;;;;;;0.47;0.35;;;;;;;6.43;100.00;98942.25;5075016;28;20067;-75
2023/01/14 04:00:10;;;;;;;0.40;0.40;;;;;;;6.38;100.00;98939.34;5040934;28;20032;-75
2023/01/14 04:02:37;;;;;;;0.40;0.40;;;;;;;6.34;100.00;98946.88;5074197;28;20096;-75
2023/01/14 04:05:03;;;;;;;0.50;0.50;;;;;;;6.29;100.00;98951.16;5024568;28;20040;-74
2023/01/14 04:07:29;;;;;;;0.43;0.43;;;;;;;6.28;100.00;98944.19;5057388;28;20036;-75
2023/01/14 04:09:54;;;;;;;0.50;0.50;;;;;;;6.22;100.00;98944.94;5074068;28;20047;-75
2023/01/14 04:12:20;;;;;;;0.50;0.50;;;;;;;6.21;100.00;98943.28;5057392;28;20036;-75
2023/01/14 04:17:31;;;;;;;0.40;0.40;;;;;;;6.17;100.00;98940.19;5074001;28;20047;-75
2023/01/14 04:19:56;;;;;;;0.40;0.40;;;;;;;6.11;100.00;98939.13;5057268;28;20029;-75
2023/01/14 04:22:22;;;;;;;0.50;0.50;;;;;;;6.09;100.00;98935.81;5073844;28;20028;-75
2023/01/14 04:24:48;;;;;;;0.40;0.40;;;;;;;6.09;100.00;98937.66;5074647;28;20440;-75
2023/01/14 04:27:13;;;;;;;0.40;0.40;;;;;;;6.06;100.00;98938.88;5056993;28;20032;-75
2023/01/14 04:29:39;;;;;;;0.40;0.40;;;;;;;5.95;100.00;98923.34;5073393;28;20395;-75
2023/01/14 04:32:04;;;;;;;0.40;0.40;;;;;;;5.98;100.00;98930.13;5073722;28;20385;-74
2023/01/14 04:34:30;;;;;;;0.40;0.40;;;;;;;5.97;100.00;98932.00;5056902;28;20044;-75
2023/01/14 04:36:56;;;;;;;0.40;0.40;;;;;;;5.84;100.00;98913.16;5056839;28;20021;-75
2023/01/14 04:39:21;;;;;;;0.40;0.40;;;;;;;5.92;100.00;98935.19;5072255;28;20491;-75
2023/01/14 04:44:31;;;;;;;0.40;0.40;;;;;;;5.95;100.00;98931.34;5073502;28;20024;-76
2023/01/14 04:46:57;;;;;;;0.40;0.40;;;;;;;5.92;100.00;98937.03;5072984;28;20387;-75
2023/01/14 04:49:25;;;;;;;0.40;0.40;;;;;;;5.89;100.00;98927.56;5072954;28;20028;-75
2023/01/14 04:51:50;;;;;;;0.40;0.40;;;;;;;5.89;100.00;98932.09;5056964;28;20123;-75
2023/01/14 04:54:16;;;;;;;0.40;0.40;;;;;;;5.88;100.00;98925.94;5056754;28;20115;-75
2023/01/14 04:56:42;;;;;;;0.40;0.40;;;;;;;5.83;100.00;98924.84;5056431;28;20067;-75
2023/01/14 04:59:08;;;;;;;0.50;0.50;;;;;;;5.77;100.00;98925.59;5039741;28;20094;-75
2023/01/14 05:01:34;;;;;;;0.40;0.40;;;;;;;5.80;100.00;98933.25;5073935;28;20493;-75
2023/01/14 05:03:59;;;;;;;0.40;0.40;;;;;;;5.79;100.00;98926.22;5073116;28;20029;-75
2023/01/14 05:06:26;;;;;;;0.40;0.40;;;;;;;5.63;100.00;98911.31;5072721;28;20028;-75
2023/01/14 05:08:52;;;;;;;0.40;0.40;;;;;;;5.82;100.00;98931.19;5056382;28;20029;-75
2023/01/14 05:11:18;;;;;;;0.40;0.40;;;;;;;5.82;100.00;98931.19;5073745;28;20039;-75
2023/01/14 05:13:44;;;;;;;0.40;0.40;;;;;;;5.79;100.00;98940.38;5073048;28;20146;-75
2023/01/14 05:16:09;;;;;;;0.40;0.40;;;;;;;5.67;100.00;98926.75;5039642;28;20498;-75
2023/01/14 05:18:35;;;;;;;0.73;0.47;;;;;;;5.70;100.00;98937.03;5056321;28;20035;-75
2023/01/14 05:21:01;;;;;;;0.40;0.40;;;;;;;5.70;100.00;98931.69;5055604;28;20035;-75
2023/01/14 05:23:26;;;;;;;0.45;0.45;;;;;;;5.68;100.00;98936.38;5056130;28;20455;-75
2023/01/14 05:25:52;;;;;;;0.55;0.55;;;;;;;5.70;100.00;98938.88;5055739;28;20036;-76
2023/01/14 05:28:19;;;;;;;0.40;0.40;;;;;;;5.64;100.00;98931.63;5072775;28;20036;-75
2023/01/14 05:30:45;;;;;;;0.40;0.40;;;;;;;5.56;100.00;98924.56;5055824;28;20445;-75
2023/01/14 05:33:11;;;;;;;0.40;0.40;;;;;;;5.66;100.00;98950.91;5056454;28;20150;-75
2023/01/14 05:35:37;;;;;;;0.40;0.40;;;;;;;5.68;100.00;98964.91;5072530;28;20120;-75
2023/01/14 05:38:04;;;;;;;0.40;0.40;;;;;;;5.67;100.00;98976.59;5055856;28;20115;-75
2023/01/14 05:40:29;;;;;;;0.50;0.50;;;;;;;5.54;100.00;98955.94;5055492;28;20060;-75
2023/01/14 05:45:41;;;;;;;0.40;0.40;;;;;;;5.31;100.00;98948.06;5058101;28;20433;-76
2023/01/14 05:48:09;;;;;;;0.40;0.40;;;;;;;5.23;100.00;98956.97;5039329;28;20479;-75
2023/01/14 05:50:35;;;;;;;0.47;0.47;;;;;;;5.13;100.00;98959.09;5055618;28;20486;-75
2023/01/14 05:53:00;;;;;;;0.40;0.40;;;;;;;5.10;100.00;98954.13;5039240;28;20035;-75
2023/01/14 05:55:26;;;;;;;0.40;0.40;;;;;;;5.02;100.00;98957.72;5072062;28;20518;-75
2023/01/14 05:57:52;;;;;;;0.50;0.50;;;;;;;5.02;100.00;98962.22;5055831;28;20028;-75
2023/01/14 06:08:34;;;;;;;0.47;0.47;;;;;;;4.95;100.00;98962.16;5072350;28;20031;-75
2023/01/14 06:11:00;;;;;;;0.40;0.40;;;;;;;4.89;100.00;98962.03;5072235;28;20037;-75
2023/01/14 06:13:26;;;;;;;0.40;0.40;;;;;;;4.86;100.00;98957.91;5055764;28;20028;-75
2023/01/14 06:15:55;;;;;;;0.40;0.40;;;;;;;4.93;100.00;98963.34;5071743;28;20032;-75
2023/01/14 06:18:22;;;;;;;0.40;0.40;;;;;;;4.89;100.00;98956.72;5072051;28;20048;-75
2023/01/14 06:20:53;;;;;;;0.40;0.40;;;;;;;4.84;100.00;98967.91;5071640;28;20036;-76
2023/01/14 06:23:21;;;;;;;0.40;0.40;;;;;;;4.74;100.00;98970.88;5071877;28;20024;-74
2023/01/14 06:25:49;;;;;;;0.50;0.50;;;;;;;4.58;100.00;98963.03;5038870;28;20025;-75
2023/01/14 06:28:16;;;;;;;0.40;0.40;;;;;;;4.46;100.00;98973.28;5038991;28;20036;-75
2023/01/14 06:30:42;;;;;;;0.47;0.47;;;;;;;4.35;100.00;98968.41;5038861;28;20048;-75
2023/01/14 06:33:08;;;;;;;0.40;0.40;;;;;;;4.29;100.00;98985.09;5071836;28;20389;-75
2023/01/14 06:35:35;;;;;;;0.40;0.40;;;;;;;4.34;100.00;98988.00;5071972;28;20029;-75
2023/01/14 06:38:00;;;;;;;0.40;0.40;;;;;;;4.41;100.00;98984.47;5055142;28;20032;-75
2023/01/14 06:40:26;;;;;;;0.43;0.43;;;;;;;4.44;100.00;98990.44;5054991;28;20379;-75
2023/01/14 06:42:55;;;;;;;0.40;0.40;;;;;;;4.46;100.00;98986.59;5055251;28;20043;-75
2023/01/14 06:45:22;;;;;;;0.40;0.40;;;;;;;4.50;100.00;98990.56;5054761;28;20463;-75
2023/01/14 06:47:48;;;;;;;0.60;0.60;;;;;;;4.53;100.00;98997.34;5055256;28;20028;-76
2023/01/14 06:50:17;;;;;;;0.40;0.40;;;;;;;4.58;100.00;98995.81;5038752;28;20131;-75
2023/01/14 06:52:43;;;;;;;0.93;0.60;;;;;;;4.55;100.00;99001.50;5055619;28;20033;-75
2023/01/14 06:55:09;;;;;;;0.40;0.40;;;;;;;4.39;100.00;98985.66;5055391;28;20036;-75
2023/01/14 06:57:34;;;;;;;0.43;0.43;;;;;;;4.33;100.00;99005.00;5071436;28;20523;-75
2023/01/14 07:00:04;;;;;;;0.40;0.40;;;;;;;4.20;100.00;98997.59;5071673;28;20024;-75
2023/01/14 07:02:30;;;;;;;1.95;0.57;;;;;;;4.10;100.00;98999.69;5075260;28;20454;-75
2023/01/14 07:04:55;;;;;;;0.40;0.40;;;;;;;3.89;100.00;98995.00;5058370;28;20116;-75
2023/01/14 07:07:21;;;;;;;0.40;0.40;;;;;;;3.71;100.00;98996.13;5058631;28;20436;-75
2023/01/14 07:09:46;;;;;;;0.40;0.40;;;;;;;3.61;100.00;99005.31;5042131;28;20524;-75
2023/01/14 07:12:12;;;;;;;0.50;0.50;;;;;;;3.40;100.00;98982.81;5042057;28;20390;-76
2023/01/14 07:14:38;;;;;;;0.40;0.40;;;;;;;3.42;100.00;98986.13;5075938;28;20371;-75
2023/01/14 07:17:04;;;;;;;0.50;0.50;;;;;;;3.43;100.00;99009.03;5058563;28;20040;-75
2023/01/14 07:19:29;;;;;;;0.40;0.40;;;;;;;3.27;100.00;99009.09;5058383;28;20085;-75
2023/01/14 07:21:55;;;;;;;0.45;0.45;;;;;;;3.12;100.00;99010.81;5075850;28;20153;-75
2023/01/14 07:24:21;;;;;;;0.40;0.40;;;;;;;3.11;100.00;99027.75;5074799;28;20032;-75
2023/01/14 07:26:46;;;;;;;0.40;0.40;;;;;;;3.12;100.00;99032.88;5075132;28;20440;-76
2023/01/14 07:29:12;;;;;;;0.40;0.40;;;;;;;3.12;100.00;99035.53;5057926;28;20467;-75
2023/01/14 07:31:37;;;;;;;0.40;0.40;;;;;;;3.00;100.00;99039.56;5058369;28;20381;-75
2023/01/14 07:34:03;;;;;;;0.50;0.50;;;;;;;2.95;100.00;99044.56;5074401;28;20514;-75
2023/01/14 07:36:29;;;;;;;0.40;0.40;;;;;;;2.96;100.00;99051.50;5074895;28;20390;-75
2023/01/14 07:38:55;;;;;;;0.40;0.40;;;;;;;2.90;100.00;99044.22;5057946;28;20386;-75
2023/01/14 07:41:22;;;;;;;0.45;0.45;;;;;;;2.85;100.00;99040.22;5057844;28;20125;-75
2023/01/14 07:43:48;;;;;;;0.40;0.40;;;;;;;2.76;100.00;99038.59;5074246;28;20036;-75
2023/01/14 07:46:15;;;;;;;0.45;0.45;;;;;;;2.66;100.00;99039.78;5075720;28;20033;-75
2023/01/14 07:48:44;;;;;;;0.40;0.40;;;;;;;2.63;100.00;99035.63;5074238;28;20494;-75
2023/01/14 07:51:11;;;;;;;0.45;0.45;;;;;;;2.50;100.00;99036.13;5074426;28;20039;-75
2023/01/14 07:53:37;;;;;;;0.40;0.40;;;;;;;2.58;100.00;99043.25;5057844;28;20032;-75
2023/01/14 07:56:05;;;;;;;0.43;0.43;;;;;;;2.49;100.00;99041.59;5057651;28;20056;-75
2023/01/14 07:58:31;;;;;;;0.50;0.50;;;;;;;2.49;100.00;99045.09;5057813;28;20131;-75
2023/01/14 08:00:57;;;;;;;0.40;0.40;;;;;;;2.35;100.00;99040.44;5057333;28;20127;-75
2023/01/14 08:03:24;;;;;;;0.40;0.40;;;;;;;2.37;100.00;99052.53;5057919;28;20037;-75
2023/01/14 08:05:50;;;;;;;0.40;0.40;;;;;;;2.33;100.00;99059.19;5057462;28;20060;-75
2023/01/14 08:08:16;;;;;;;0.40;0.40;;;;;;;2.32;100.00;99056.69;5057490;28;20031;-75
2023/01/14 08:10:41;;;;;;;0.40;0.40;;;;;;;2.37;100.00;99055.19;5057648;28;20127;-75
2023/01/14 08:13:11;;;;;;;0.40;0.40;;;;;;;2.47;100.00;99057.69;5040740;28;20382;-76
2023/01/14 08:15:37;;;;;;;0.40;0.40;;;;;;;2.44;100.00;99044.75;5073492;28;20551;-76
2023/01/14 08:18:03;;;;;;;0.43;0.43;;;;;;;2.53;100.00;99058.84;5040574;28;20024;-76
2023/01/14 08:20:28;;;;;;;0.40;0.40;;;;;;;2.61;100.00;99064.97;5040370;28;20047;-75
2023/01/14 08:22:58;;;;;;;0.40;0.40;;;;;;;2.73;100.00;99062.84;5073436;28;20033;-76
2023/01/14 08:25:25;;;;;;;0.50;0.50;;;;;;;2.97;100.00;99059.31;5073613;28;20032;-75
2023/01/14 08:27:51;;;;;;;0.50;0.50;;;;;;;3.17;100.00;99065.06;5056943;28;20425;-75
2023/01/14 08:30:17;;;;;;;0.50;0.50;;;;;;;3.29;100.00;99076.19;5073103;28;20497;-75
2023/01/14 08:32:43;;;;;;;0.50;0.50;;;;;;;3.24;100.00;99075.84;5039940;28;20043;-77
2023/01/14 08:35:09;;;;;;;0.50;0.50;;;;;;;3.22;100.00;99080.50;5040142;28;20036;-75
2023/01/14 08:37:34;;;;;;;0.50;0.50;;;;;;;3.13;100.00;99076.22;5074147;28;20039;-75
2023/01/14 08:40:00;;;;;;;2.33;0.82;;;;;;;3.14;100.00;99083.19;5056462;28;20064;-75
2023/01/14 08:42:26;;;;;;;0.40;0.40;;;;;;;2.98;100.00;99060.97;5072798;28;20428;-75
2023/01/14 08:44:51;;;;;;;0.40;0.40;;;;;;;3.00;100.00;99082.03;5073071;28;20086;-75
2023/01/14 08:47:17;;;;;;;0.50;0.50;;;;;;;2.91;100.00;99078.59;5072695;28;20032;-75
2023/01/14 08:49:43;;;;;;;0.50;0.50;;;;;;;2.80;100.00;99084.22;5056362;28;20127;-75
2023/01/14 08:52:09;;;;;;;0.43;0.43;;;;;;;2.72;100.00;99073.59;5056104;28;20107;-75
2023/01/14 08:54:35;;;;;;;0.40;0.40;;;;;;;2.62;100.00;99074.63;5073371;28;20078;-75
2023/01/14 08:57:00;;;;;;;0.50;0.50;;;;;;;2.56;100.00;99064.66;5056038;28;20394;-75
2023/01/14 08:59:26;;;;;;;0.40;0.40;;;;;;;2.57;100.00;99076.09;5055559;28;20034;-75
2023/01/14 09:01:52;;;;;;;0.40;0.40;;;;;;;2.57;100.00;99078.75;5056063;28;20032;-75
2023/01/14 09:04:18;;;;;;;0.50;0.50;;;;;;;2.62;100.00;99089.72;5055399;28;20517;-75
2023/01/14 09:17:41;;;;;;;0.45;0.45;;;;;;;2.69;100.00;99095.16;5058088;28;20037;-76
2023/01/14 09:20:13;;;;;;;0.40;0.40;;;;;;;2.75;100.00;99092.69;5072039;28;20029;-75
2023/01/14 09:22:39;;;;;;;0.40;0.40;;;;;;;2.83;100.00;99098.00;5055461;28;20425;-75
2023/01/14 09:25:06;;;;;;;0.40;0.40;;;;;;;2.80;100.00;99081.56;5054859;28;20029;-75
2023/01/14 09:27:31;;;;;;;0.75;0.50;;;;;;;2.95;100.00;99106.44;5055690;28;20024;-75
2023/01/14 09:29:57;;;;;;;74.53;68.10;;;;;;;2.89;100.00;99108.94;5072233;28;20447;-75
2023/01/14 09:32:24;;;;;;;0.40;0.40;;;;;;;2.76;100.00;99081.06;5073139;28;20056;-76
2023/01/14 09:34:52;;;;;;;0.50;0.50;;;;;;;2.93;100.00;99099.63;5072266;28;20032;-75
2023/01/14 09:37:22;;;;;;;0.50;0.50;;;;;;;3.16;100.00;99091.81;5072438;28;20039;-75
2023/01/14 09:39:49;;;;;;;0.40;0.40;;;;;;;3.53;100.00;99107.16;5055471;28;20039;-75
2023/01/14 09:42:45;;;;;;;0.50;0.50;;;;;;;3.95;100.00;99106.00;5072379;28;20486;-75
2023/01/14 09:45:22;;;;;;;0.50;0.50;;;;;;;4.26;100.00;99103.34;5055138;28;20501;-75
2023/01/14 09:47:48;;;;;;;0.40;0.40;;;;;;;4.28;100.00;99109.28;5039320;28;20075;-75
2023/01/14 09:50:16;;;;;;;0.40;0.40;;;;;;;4.33;100.00;99114.91;5038980;28;20060;-76
2023/01/14 09:52:56;;;;;;;0.50;0.50;;;;;;;4.68;100.00;99118.00;5071917;28;20462;-76
2023/01/14 09:55:43;;;;;;;0.50;0.50;;;;;;;5.12;100.00;99105.81;5056045;28;20033;-75
2023/01/14 09:58:13;;;;;;;0.50;0.50;;;;;;;5.41;100.00;99135.19;5055886;28;20032;-74
2023/01/14 10:01:00;;;;;;;0.50;0.50;;;;;;;5.71;100.00;99133.34;5071971;28;20024;-76
2023/01/14 10:03:38;;;;;;;0.50;0.50;;;;;;;6.04;100.00;99135.66;5055768;28;20036;-75
2023/01/14 10:06:10;;;;;;;2.55;0.60;;;;;;;5.31;100.00;99137.28;5071919;28;20117;-75
2023/01/14 10:08:40;;;;;;;0.40;0.40;;;;;;;4.80;100.00;99142.38;5055640;28;20036;-74
2023/01/14 10:11:07;;;;;;;0.50;0.50;;;;;;;5.33;100.00;99139.78;5072228;28;20021;-77
2023/01/14 10:13:37;;;;;;;0.63;0.60;;;;;;;5.73;100.00;99139.31;5055648;28;20090;-77
2023/01/14 10:16:08;;;;;;;0.50;0.50;;;;;;;6.96;100.00;99143.00;5038838;28;20024;-75
2023/01/14 10:19:09;;;;;;;1.13;1.00;;;;;;;8.28;100.00;99142.19;5055407;28;20463;-74
2023/01/14 10:21:48;;;;;;;0.90;0.90;;;;;;;10.04;100.00;99152.56;5038794;28;20036;-79
2023/01/14 10:24:15;;;;;;;1.05;0.60;;;;;;;8.94;100.00;99160.28;5072149;28;20040;-80
2023/01/14 10:26:43;;;;;;;2.38;1.50;;;;;;;8.98;100.00;99155.38;5055555;28;20032;-81
2023/01/14 10:29:21;;;;;;;3.40;0.90;;;;;;;8.72;100.00;99186.44;5055438;28;20032;-80
2023/01/14 10:31:50;;;;;;;6.43;1.08;;;;;;;6.89;100.00;99214.25;5038844;28;20058;-79
2023/01/14 10:34:24;;;;;;;0.40;0.40;;;;;;;5.60;100.00;99200.47;5055073;28;20028;-79
2023/01/14 10:36:50;;;;;;;0.50;0.50;;;;;;;4.87;100.00;99185.94;5058962;28;20194;-79
2023/01/14 10:39:16;;;;;;;0.60;0.60;;;;;;;4.70;100.00;99195.03;5058987;28;20066;-79
2023/01/14 10:41:50;;;;;;;0.60;0.60;;;;;;;4.77;100.00;99204.81;5058972;28;20067;-78
2023/01/14 10:44:22;;;;;;;0.80;0.60;;;;;;;4.76;100.00;99187.19;5043474;28;20436;-79
2023/01/14 10:46:49;;;;;;;0.60;0.60;;;;;;;5.34;100.00;99189.38;5059133;28;20085;-78
2023/01/14 10:49:20;;;;;;;0.50;0.50;;;;;;;6.41;100.00;99194.41;5059239;28;20041;-77
2023/01/14 10:51:49;;;;;;;0.50;0.50;;;;;;;6.32;100.00;99210.50;5075666;28;20046;-78
2023/01/14 10:54:24;;;;;;;1.27;0.60;;;;;;;5.55;100.00;99218.00;5075366;28;20390;-78
2023/01/14 10:56:55;;;;;;;0.60;0.60;;;;;;;5.94;100.00;99218.63;5042444;28;20036;-79
2023/01/14 10:59:42;;;;;;;0.70;0.70;;;;;;;7.24;100.00;99230.41;5075230;28;20538;-79
2023/01/14 11:02:39;;;;;;;0.60;0.60;;;;;;;8.83;100.00;99227.91;5058897;28;20131;-76
2023/01/14 11:05:27;;;;;;;0.60;0.60;;;;;;;9.73;100.00;99216.84;5061784;28;20541;-76
2023/01/14 11:07:56;;;;;;;0.50;0.50;;;;;;;8.12;100.00;99214.81;5058610;28;20043;-77
2023/01/14 11:10:29;;;;;;;0.45;0.45;;;;;;;6.99;100.00;99217.44;5075024;28;20051;-77
2023/01/14 11:13:36;;;;;;;0.40;0.40;;;;;;;6.07;100.00;99214.50;5042114;28;20067;-77
2023/01/14 11:16:02;;;;;;;0.50;0.50;;;;;;;5.45;100.00;99207.59;5058213;28;20070;-77
2023/01/14 11:18:30;;;;;;;0.40;0.40;;;;;;;5.13;100.00;99220.19;5058094;28;20082;-77
2023/01/14 11:21:31;;;;;;;0.60;0.60;;;;;;;7.14;100.00;99228.06;5041652;28;20115;-76
2023/01/14 11:23:59;;;;;;;0.60;0.60;;;;;;;8.66;100.00;99230.13;5031107;28;20498;-76
2023/01/14 11:26:47;;;;;;;0.60;0.60;;;;;;;9.17;100.00;99223.44;5057803;28;20032;-77
2023/01/14 11:29:20;;;;;;;0.60;0.60;;;;;;;8.63;100.00;99222.50;5055049;28;20152;-76
2023/01/14 11:31:50;;;;;;;0.50;0.50;;;;;;;7.39;100.00;99241.06;5058275;28;20033;-76
2023/01/14 11:34:29;;;;;;;0.50;0.50;;;;;;;6.68;100.00;99252.44;5058041;28;20112;-76
2023/01/14 11:37:17;;;;;;;0.50;0.50;;;;;;;6.12;100.00;99252.97;5058272;28;20041;-77
2023/01/14 11:40:02;;;;;;;0.55;0.55;;;;;;;5.53;100.00;99281.34;5075346;28;20035;-77
2023/01/14 11:42:37;;;;;;;0.50;0.50;;;;;;;4.85;100.00;99275.84;5074389;28;20119;-75
2023/01/14 11:45:11;;;;;;;1.10;0.60;;;;;;;4.22;100.00;99264.31;5041600;28;20036;-76
2023/01/14 11:47:52;;;;;;;0.50;0.50;;;;;;;3.95;100.00;99269.03;5074812;28;20051;-76
2023/01/14 11:50:29;;;;;;;0.50;0.50;;;;;;;3.90;100.00;99279.34;5074441;28;20521;-76
2023/01/14 11:53:04;;;;;;;0.73;0.52;;;;;;;3.89;100.00;99269.72;5074386;28;20028;-77
2023/01/14 11:55:39;;;;;;;0.40;0.40;;;;;;;4.02;100.00;99269.16;5057761;28;20043;-77
2023/01/14 11:58:14;;;;;;;0.40;0.40;;;;;;;4.08;100.00;99262.38;5075474;28;20043;-77
2023/01/14 12:00:42;;;;;;;0.47;0.47;;;;;;;4.09;100.00;99279.97;5057566;28;20077;-77
2023/01/14 12:03:23;;;;;;;0.50;0.50;;;;;;;4.08;100.00;99268.50;5041095;28;20271;-77
2023/01/14 12:05:50;;;;;;;0.50;0.50;;;;;;;4.04;100.00;99275.16;5073712;28;20481;-76
2023/01/14 12:08:17;;;;;;;0.40;0.40;;;;;;;3.96;100.00;99278.66;5073540;28;20551;-77
2023/01/14 12:10:47;;;;;;;0.40;0.40;;;;;;;3.82;100.00;99287.34;5073612;28;20111;-75
2023/01/14 12:19:20;;;;;;;0.50;0.50;;;;;;;4.46;100.00;99281.19;5059865;28;20043;-78
2023/01/14 12:21:56;;;;;;;0.68;0.68;;;;;;;5.62;100.00;99289.09;5040793;28;20032;-76
2023/01/14 12:24:53;;;;;;;0.60;0.60;;;;;;;7.28;100.00;99255.78;5057205;28;20032;-76
2023/01/14 12:27:44;;;;;;;0.50;0.50;;;;;;;6.90;100.00;99276.53;5057078;28;20047;-76